Terminal Aerodrome Forecast
Issued by NWS Newport/Morehead City, NC

Home | Current Version | Previous Version | Text Only | Print | Product List | Glossary On
Versions: 1 2 3 4 5 6 7 8 9 10 11 12 13 14 15
000
FTUS42 KMHX 230717 AAA
TAFEWN
TAF AMD
KEWN 230717Z 2307/2406 00000KT 1 1/2SM BR BKN200
     FM230900 00000KT 3SM BR SCT050 BKN150
      TEMPO 2309/2312 2SM BR
     FM231300 11004KT P6SM SCT050 BKN150=

USA.gov is the U.S. government's official web portal to all federal, state and local government web resources and services.